createdAt,value
2018-08-09T00:00:14.937Z,61.85
2018-08-09T00:00:46.541Z,62.06
2018-08-09T00:01:18.137Z,62.00
2018-08-09T00:01:49.764Z,62.09
2018-08-09T00:02:21.355Z,62.02
2018-08-09T00:02:52.952Z,61.95
2018-08-09T00:03:24.550Z,62.20
2018-08-09T00:03:56.136Z,61.88
2018-08-09T00:04:27.710Z,61.94
2018-08-09T00:04:59.295Z,62.00
2018-08-09T00:05:30.929Z,62.03
2018-08-09T00:06:02.526Z,62.25
2018-08-09T00:06:34.116Z,62.17
2018-08-09T00:07:05.713Z,62.46
2018-08-09T00:07:37.299Z,62.50
2018-08-09T00:08:08.901Z,62.27
2018-08-09T00:08:40.487Z,62.26
2018-08-09T00:09:12.072Z,62.67
2018-08-09T00:09:43.659Z,62.58
2018-08-09T00:10:15.253Z,62.61
2018-08-09T00:10:46.893Z,62.80
2018-08-09T00:11:18.493Z,62.87
2018-08-09T00:11:50.096Z,62.54
2018-08-09T00:12:21.675Z,61.45
2018-08-09T00:12:53.268Z,61.27
2018-08-09T00:13:24.845Z,61.61
2018-08-09T00:13:56.439Z,62.06
2018-08-09T00:14:28.023Z,62.16
2018-08-09T00:14:59.599Z,62.18
2018-08-09T00:15:31.187Z,61.99
2018-08-09T00:16:02.801Z,61.88
2018-08-09T00:16:34.398Z,61.65
2018-08-09T00:17:05.973Z,61.63
2018-08-09T00:17:37.570Z,61.59
2018-08-09T00:18:09.163Z,61.31
2018-08-09T00:18:40.763Z,61.07
2018-08-09T00:19:12.351Z,61.03
2018-08-09T00:19:43.949Z,60.87
2018-08-09T00:20:15.535Z,60.68
2018-08-09T00:20:47.120Z,60.68
2018-08-09T00:21:18.757Z,60.72
2018-08-09T00:21:50.353Z,60.92
2018-08-09T00:22:21.939Z,60.89
2018-08-09T00:22:53.538Z,60.97
2018-08-09T00:23:25.137Z,60.97
2018-08-09T00:23:56.845Z,61.16
2018-08-09T00:24:28.363Z,61.31
2018-08-09T00:24:59.947Z,61.34
2018-08-09T00:25:31.544Z,61.36
2018-08-09T00:26:03.181Z,61.46
2018-08-09T00:26:34.754Z,61.41
2018-08-09T00:27:06.338Z,61.43
2018-08-09T00:27:37.937Z,61.41
2018-08-09T00:28:09.527Z,61.44
2018-08-09T00:28:41.112Z,61.46
2018-08-09T00:29:12.713Z,61.45
2018-08-09T00:29:44.339Z,61.40
2018-08-09T00:30:15.919Z,61.35
2018-08-09T00:30:47.513Z,61.18
2018-08-09T00:31:19.099Z,61.12
2018-08-09T00:31:50.697Z,61.16
2018-08-09T00:32:22.298Z,61.18
2018-08-09T00:32:53.879Z,61.20
2018-08-09T00:33:25.512Z,61.16
2018-08-09T00:33:57.110Z,61.25
2018-08-09T00:34:28.695Z,61.34
2018-08-09T00:35:00.291Z,61.23
2018-08-09T00:35:31.883Z,61.28
2018-08-09T00:36:03.468Z,61.39
2018-08-09T00:36:35.066Z,61.10
2018-08-09T00:37:06.661Z,61.07
2018-08-09T00:37:38.257Z,60.97
2018-08-09T00:38:09.858Z,60.86
2018-08-09T00:38:41.491Z,60.90
2018-08-09T00:39:13.089Z,61.00
2018-08-09T00:39:44.675Z,61.23
2018-08-09T00:40:16.279Z,60.89
2018-08-09T00:40:47.883Z,60.73
2018-08-09T00:41:19.481Z,60.80
2018-08-09T00:41:51.067Z,61.26
2018-08-09T00:42:22.655Z,60.78
2018-08-09T00:42:54.253Z,60.69
2018-08-09T00:43:25.849Z,60.72
2018-08-09T00:43:57.440Z,60.77
2018-08-09T00:44:29.117Z,60.57
2018-08-09T00:45:00.703Z,60.60
2018-08-09T00:45:32.291Z,60.66
2018-08-09T00:46:03.906Z,60.57
2018-08-09T00:46:35.505Z,60.72
2018-08-09T00:47:07.081Z,60.78
2018-08-09T00:47:38.668Z,61.22
2018-08-09T00:48:10.246Z,60.80
2018-08-09T00:48:41.889Z,60.88
2018-08-09T00:49:13.475Z,61.08
2018-08-09T00:49:45.073Z,61.21
2018-08-09T00:50:16.660Z,61.13
2018-08-09T00:50:48.252Z,60.86
2018-08-09T00:51:19.840Z,60.57
2018-08-09T00:51:51.478Z,60.75
2018-08-09T00:52:23.064Z,60.53
2018-08-09T00:52:54.649Z,60.50
2018-08-09T00:53:26.241Z,60.52
2018-08-09T00:53:57.857Z,60.74
2018-08-09T00:54:29.461Z,61.15
2018-08-09T00:55:01.102Z,60.87
2018-08-09T00:55:32.700Z,60.89
2018-08-09T00:56:04.281Z,61.26
2018-08-09T00:56:35.877Z,60.88
2018-08-09T00:57:07.463Z,60.97
2018-08-09T00:57:39.073Z,60.73
2018-08-09T00:58:10.662Z,60.66
2018-08-09T00:58:42.243Z,60.64
2018-08-09T00:59:13.830Z,60.65
2018-08-09T00:59:45.415Z,60.51
2018-08-09T01:00:17.043Z,60.89
2018-08-09T01:00:48.623Z,60.82
2018-08-09T01:01:20.211Z,60.95
2018-08-09T01:01:51.790Z,61.23
2018-08-09T01:02:23.400Z,60.89
2018-08-09T01:02:54.990Z,60.95
2018-08-09T01:03:26.628Z,60.53
2018-08-09T01:03:58.228Z,60.42
2018-08-09T01:04:29.815Z,60.40
2018-08-09T01:05:01.397Z,60.41
2018-08-09T01:05:32.979Z,60.50
2018-08-09T01:06:04.557Z,60.58
2018-08-09T01:06:36.143Z,60.48
2018-08-09T01:07:07.745Z,60.53
2018-08-09T01:07:39.357Z,60.64
2018-08-09T01:08:10.956Z,60.65
2018-08-09T01:08:42.541Z,60.83
2018-08-09T01:09:14.127Z,60.86
2018-08-09T01:09:45.716Z,60.90
2018-08-09T01:10:17.307Z,60.92
2018-08-09T01:10:48.891Z,60.94
2018-08-09T01:11:20.478Z,60.99
2018-08-09T01:11:52.049Z,61.00
2018-08-09T01:12:23.639Z,61.21
2018-08-09T01:12:55.282Z,60.95
2018-08-09T01:13:26.875Z,61.01
2018-08-09T01:13:58.463Z,61.02
2018-08-09T01:14:30.034Z,60.77
2018-08-09T01:15:01.620Z,60.83
2018-08-09T01:15:33.194Z,60.88
2018-08-09T01:16:04.788Z,61.02
2018-08-09T01:16:36.443Z,60.84
2018-08-09T01:17:08.027Z,60.82
2018-08-09T01:17:39.659Z,60.97
2018-08-09T01:18:11.243Z,60.96
2018-08-09T01:18:42.861Z,61.19
2018-08-09T01:19:14.458Z,60.80
2018-08-09T01:19:46.067Z,60.89
2018-08-09T01:20:17.677Z,60.72
2018-08-09T01:20:49.267Z,60.76
2018-08-09T01:21:20.865Z,60.75
2018-08-09T01:21:52.451Z,60.82
2018-08-09T01:22:24.045Z,60.89
2018-08-09T01:22:55.641Z,61.30
2018-08-09T01:23:27.230Z,61.22
2018-08-09T01:23:58.879Z,61.18
2018-08-09T01:24:30.472Z,61.25
2018-08-09T01:25:02.051Z,61.23
2018-08-09T01:25:33.689Z,60.91
2018-08-09T01:26:05.326Z,61.11
2018-08-09T01:26:36.901Z,60.75
2018-08-09T01:27:08.481Z,60.77
2018-08-09T01:27:40.059Z,60.79
2018-08-09T01:28:11.658Z,60.73
2018-08-09T01:28:43.249Z,60.78
2018-08-09T01:29:14.835Z,60.60
2018-08-09T01:29:46.442Z,60.46
2018-08-09T01:30:18.042Z,60.35
2018-08-09T01:30:49.632Z,60.25
2018-08-09T01:31:21.265Z,60.19
2018-08-09T01:31:52.871Z,60.51
2018-08-09T01:32:24.483Z,60.08
2018-08-09T01:32:56.146Z,60.07
2018-08-09T01:33:27.687Z,60.04
2018-08-09T01:33:59.320Z,60.19
2018-08-09T01:34:30.921Z,60.98
2018-08-09T01:35:02.519Z,60.90
2018-08-09T01:35:34.116Z,61.02
2018-08-09T01:36:05.703Z,61.37
2018-08-09T01:36:37.297Z,61.53
2018-08-09T01:37:08.932Z,61.96
2018-08-09T01:37:40.535Z,61.64
2018-08-09T01:38:12.134Z,61.52
2018-08-09T01:38:43.734Z,61.60
2018-08-09T01:39:15.324Z,61.78
2018-08-09T01:39:46.907Z,61.88
2018-08-09T01:40:18.505Z,61.78
2018-08-09T01:40:50.109Z,61.86
2018-08-09T01:41:21.729Z,61.84
2018-08-09T01:41:53.297Z,61.88
2018-08-09T01:42:24.869Z,61.86
2018-08-09T01:42:56.455Z,61.87
2018-08-09T01:43:28.049Z,61.79
2018-08-09T01:43:59.636Z,61.70
2018-08-09T01:44:31.233Z,61.88
2018-08-09T01:45:02.872Z,61.59
2018-08-09T01:45:34.469Z,61.78
2018-08-09T01:46:06.060Z,61.62
2018-08-09T01:46:37.647Z,61.71
2018-08-09T01:47:09.235Z,61.57
2018-08-09T01:47:40.820Z,61.59
2018-08-09T01:48:12.407Z,61.55
2018-08-09T01:48:44.001Z,61.55
2018-08-09T01:49:15.577Z,61.48
2018-08-09T01:49:47.173Z,61.42
2018-08-09T01:50:18.809Z,61.37
2018-08-09T01:50:50.386Z,61.39
2018-08-09T01:51:21.961Z,61.42
2018-08-09T01:51:53.543Z,61.70
2018-08-09T01:52:25.146Z,61.56
2018-08-09T01:52:56.732Z,61.47
2018-08-09T01:53:28.316Z,61.40
2018-08-09T01:53:59.906Z,61.44
2018-08-09T01:54:31.491Z,61.63
2018-08-09T01:55:03.119Z,61.38
2018-08-09T01:55:34.772Z,61.35
2018-08-09T01:56:06.345Z,61.44
2018-08-09T01:56:37.932Z,61.35
2018-08-09T01:57:09.511Z,61.42
2018-08-09T01:57:41.098Z,61.62
2018-08-09T01:58:12.673Z,61.35
2018-08-09T01:58:44.263Z,61.21
2018-08-09T01:59:15.847Z,61.29
2018-08-09T01:59:47.438Z,61.17
2018-08-09T02:00:19.022Z,61.34
2018-08-09T02:00:50.607Z,61.29
2018-08-09T02:01:22.191Z,61.36
2018-08-09T02:01:53.765Z,61.22
2018-08-09T02:02:25.361Z,61.12
2018-08-09T02:02:56.951Z,61.07
2018-08-09T02:03:28.525Z,61.10
2018-08-09T02:04:00.107Z,61.15
2018-08-09T02:04:31.764Z,61.14
2018-08-09T02:05:03.342Z,61.29
2018-08-09T02:05:34.921Z,61.22
2018-08-09T02:06:06.551Z,61.27
2018-08-09T02:06:38.139Z,61.20
2018-08-09T02:07:09.724Z,61.10
2018-08-09T02:07:41.341Z,61.15
2018-08-09T02:08:12.914Z,61.30
2018-08-09T02:08:44.500Z,61.26
2018-08-09T02:09:16.079Z,61.35
2018-08-09T02:09:47.682Z,61.24
2018-08-09T02:10:19.267Z,61.23
2018-08-09T02:10:50.855Z,61.24
2018-08-09T02:11:22.447Z,61.23
2018-08-09T02:11:54.097Z,61.30
2018-08-09T02:12:25.687Z,61.23
2018-08-09T02:12:57.275Z,61.39
2018-08-09T02:13:28.859Z,61.32
2018-08-09T02:14:00.453Z,61.19
2018-08-09T02:14:32.040Z,61.17
2018-08-09T02:15:03.636Z,61.55
2018-08-09T02:15:35.236Z,61.24
2018-08-09T02:16:06.837Z,61.13
2018-08-09T02:16:38.471Z,61.07
2018-08-09T02:17:10.061Z,61.03
2018-08-09T02:17:41.657Z,61.04
2018-08-09T02:18:13.246Z,60.95
2018-08-09T02:18:44.835Z,60.98
2018-08-09T02:19:16.429Z,60.63
2018-08-09T02:19:48.033Z,60.66
2018-08-09T02:20:19.635Z,60.45
2018-08-09T02:20:51.223Z,60.16
2018-08-09T02:21:22.810Z,60.32
2018-08-09T02:21:54.446Z,60.36
2018-08-09T02:22:26.049Z,60.22
2018-08-09T02:22:57.651Z,60.16
2018-08-09T02:23:29.239Z,59.99
2018-08-09T02:24:00.818Z,59.83
2018-08-09T02:24:32.457Z,59.50
2018-08-09T02:25:04.061Z,59.60
2018-08-09T02:25:35.665Z,59.81
2018-08-09T02:26:07.259Z,59.57
2018-08-09T02:26:38.897Z,59.17
2018-08-09T02:27:10.481Z,59.16
2018-08-09T02:27:42.081Z,58.88
2018-08-09T02:28:13.658Z,59.12
2018-08-09T02:28:45.243Z,58.90
2018-08-09T02:29:16.849Z,58.74
2018-08-09T02:29:48.482Z,59.17
2018-08-09T02:30:20.072Z,58.83
2018-08-09T02:30:51.649Z,58.98
2018-08-09T02:31:23.246Z,59.29
2018-08-09T02:31:54.829Z,58.92
2018-08-09T02:32:26.416Z,58.77
2018-08-09T02:32:58.012Z,59.07
2018-08-09T02:33:29.600Z,59.13
2018-08-09T02:34:01.202Z,59.52
2018-08-09T02:34:32.799Z,59.70
2018-08-09T02:35:04.427Z,59.68
2018-08-09T02:35:36.005Z,59.71
2018-08-09T02:36:07.606Z,59.69
2018-08-09T02:36:39.201Z,59.69
2018-08-09T02:37:10.791Z,59.27
2018-08-09T02:37:42.389Z,59.34
2018-08-09T02:38:13.980Z,59.75
2018-08-09T02:38:45.564Z,59.22
2018-08-09T02:39:17.152Z,58.78
2018-08-09T02:39:48.725Z,58.40
2018-08-09T02:40:20.321Z,58.32
2018-08-09T02:40:51.907Z,58.31
2018-08-09T02:41:23.493Z,58.29
2018-08-09T02:41:55.098Z,58.08
2018-08-09T02:42:26.688Z,58.14
2018-08-09T02:42:58.286Z,57.93
2018-08-09T02:43:29.875Z,57.76
2018-08-09T02:44:01.472Z,57.84
2018-08-09T02:44:33.073Z,58.41
2018-08-09T02:45:04.715Z,58.73
2018-08-09T02:45:36.328Z,58.97
2018-08-09T02:46:07.930Z,59.33
2018-08-09T02:46:39.546Z,59.33
2018-08-09T02:47:11.193Z,59.40
2018-08-09T02:47:42.789Z,59.66
2018-08-09T02:48:14.388Z,59.55
2018-08-09T02:48:45.997Z,59.64
2018-08-09T02:49:17.594Z,59.83
2018-08-09T02:49:49.242Z,59.58
2018-08-09T02:50:20.878Z,59.65
2018-08-09T02:50:52.526Z,59.58
2018-08-09T02:51:24.112Z,59.52
2018-08-09T02:51:55.700Z,59.20
2018-08-09T02:52:27.301Z,58.92
2018-08-09T02:52:58.891Z,59.14
2018-08-09T02:53:30.475Z,58.85
2018-08-09T02:54:02.077Z,58.79
2018-08-09T02:54:33.653Z,59.10
2018-08-09T02:55:05.257Z,58.91
2018-08-09T02:55:36.851Z,58.97
2018-08-09T02:56:08.486Z,58.87
2018-08-09T02:56:40.086Z,58.91
2018-08-09T02:57:11.685Z,58.92
2018-08-09T02:57:43.270Z,58.83
2018-08-09T02:58:14.851Z,59.92
2018-08-09T02:58:46.449Z,59.37
2018-08-09T02:59:18.058Z,59.62
2018-08-09T02:59:49.647Z,60.01
2018-08-09T03:00:21.266Z,59.77
2018-08-09T03:00:52.916Z,59.60
2018-08-09T03:01:24.504Z,58.99
2018-08-09T03:01:56.089Z,59.26
2018-08-09T03:02:27.694Z,58.80
2018-08-09T03:02:59.310Z,59.10
2018-08-09T03:03:30.895Z,59.42
2018-08-09T03:04:02.489Z,60.34
2018-08-09T03:04:34.088Z,59.69
2018-08-09T03:05:05.685Z,60.32
2018-08-09T03:05:37.294Z,60.09
2018-08-09T03:06:08.920Z,60.08
2018-08-09T03:06:40.566Z,59.99
2018-08-09T03:07:12.141Z,60.40
2018-08-09T03:07:43.737Z,60.24
2018-08-09T03:08:15.323Z,60.35
2018-08-09T03:08:46.908Z,61.27
2018-08-09T03:09:18.501Z,61.25
2018-08-09T03:09:50.088Z,61.69
2018-08-09T03:10:21.685Z,61.58
2018-08-09T03:10:53.282Z,61.20
2018-08-09T03:11:24.949Z,60.90
2018-08-09T03:11:56.544Z,60.67
2018-08-09T03:12:28.145Z,60.83
2018-08-09T03:12:59.744Z,60.63
2018-08-09T03:13:31.331Z,60.49
2018-08-09T03:14:02.914Z,60.42
2018-08-09T03:14:34.499Z,60.16
2018-08-09T03:15:06.196Z,60.38
2018-08-09T03:15:37.797Z,60.03
2018-08-09T03:16:09.385Z,59.96
2018-08-09T03:16:41.013Z,60.01
2018-08-09T03:17:12.665Z,60.23
2018-08-09T03:17:44.214Z,60.22
2018-08-09T03:18:15.794Z,60.53
2018-08-09T03:18:47.420Z,60.03
2018-08-09T03:19:19.021Z,60.28
2018-08-09T03:19:50.625Z,59.97
2018-08-09T03:20:22.210Z,60.00
2018-08-09T03:20:53.785Z,59.85
2018-08-09T03:21:25.425Z,59.79
2018-08-09T03:21:57.010Z,59.82
2018-08-09T03:22:28.612Z,59.78
2018-08-09T03:23:00.209Z,59.79
2018-08-09T03:23:31.799Z,59.71
2018-08-09T03:24:03.415Z,59.89
2018-08-09T03:24:35.039Z,59.66
2018-08-09T03:25:06.633Z,59.74
2018-08-09T03:25:38.223Z,59.84
2018-08-09T03:26:09.813Z,59.97
2018-08-09T03:26:41.417Z,60.14
2018-08-09T03:27:12.989Z,60.03
2018-08-09T03:27:44.741Z,59.90
2018-08-09T03:28:16.327Z,59.96
2018-08-09T03:28:47.921Z,60.00
2018-08-09T03:29:19.525Z,59.80
2018-08-09T03:29:51.115Z,59.75
2018-08-09T03:30:22.699Z,60.13
2018-08-09T03:30:54.302Z,59.79
2018-08-09T03:31:25.889Z,60.20
2018-08-09T03:31:57.483Z,60.34
2018-08-09T03:32:29.081Z,60.33
2018-08-09T03:33:00.719Z,60.53
2018-08-09T03:33:32.317Z,60.51
2018-08-09T03:34:03.919Z,60.47
2018-08-09T03:34:35.507Z,60.48
2018-08-09T03:35:07.085Z,60.47
2018-08-09T03:35:38.679Z,60.54
2018-08-09T03:36:10.263Z,60.60
2018-08-09T03:36:41.862Z,60.43
2018-08-09T03:37:13.450Z,60.18
2018-08-09T03:37:45.054Z,60.31
2018-08-09T03:38:16.685Z,60.20
2018-08-09T03:38:48.266Z,60.45
2018-08-09T03:39:19.855Z,60.28
2018-08-09T03:39:51.443Z,60.32
2018-08-09T03:40:23.067Z,60.23
2018-08-09T03:40:54.669Z,60.12
2018-08-09T03:41:26.259Z,60.52
2018-08-09T03:41:57.844Z,60.77
2018-08-09T03:42:29.445Z,60.34
2018-08-09T03:43:01.025Z,60.63
2018-08-09T03:43:32.666Z,60.43
2018-08-09T03:44:04.238Z,60.31
2018-08-09T03:44:35.826Z,60.71
2018-08-09T03:45:07.427Z,60.32
2018-08-09T03:45:39.024Z,60.71
2018-08-09T03:46:10.597Z,60.49
2018-08-09T03:46:42.183Z,60.72
2018-08-09T03:47:13.753Z,60.60
2018-08-09T03:47:45.353Z,60.18
2018-08-09T03:48:16.989Z,59.94
2018-08-09T03:48:48.566Z,59.85
2018-08-09T03:49:20.138Z,59.75
2018-08-09T03:49:51.723Z,59.44
2018-08-09T03:50:23.313Z,59.20
2018-08-09T03:50:54.953Z,59.29
2018-08-09T03:51:26.539Z,59.30
2018-08-09T03:51:58.117Z,59.31
2018-08-09T03:52:29.744Z,59.47
2018-08-09T03:53:01.329Z,59.65
2018-08-09T03:53:32.927Z,59.66
2018-08-09T03:54:04.556Z,59.69
2018-08-09T03:54:36.144Z,59.76
2018-08-09T03:55:07.735Z,59.90
2018-08-09T03:55:39.334Z,60.28
2018-08-09T03:56:10.935Z,60.28
2018-08-09T03:56:42.533Z,60.20
2018-08-09T03:57:14.130Z,60.63
2018-08-09T03:57:45.709Z,60.93
2018-08-09T03:58:17.354Z,60.86
2018-08-09T03:58:48.973Z,60.99
2018-08-09T03:59:20.567Z,61.06
2018-08-09T03:59:52.209Z,61.00
2018-08-09T04:00:23.795Z,61.11
2018-08-09T04:00:55.393Z,61.17
2018-08-09T04:01:26.988Z,61.20
2018-08-09T04:01:58.577Z,61.19
2018-08-09T04:02:30.212Z,61.35
2018-08-09T04:03:01.819Z,61.16
2018-08-09T04:03:33.398Z,61.21
2018-08-09T04:04:05.016Z,61.19
2018-08-09T04:04:36.597Z,61.41
2018-08-09T04:05:08.186Z,61.10
2018-08-09T04:05:39.773Z,61.27
2018-08-09T04:06:11.377Z,61.15
2018-08-09T04:06:42.963Z,60.96
2018-08-09T04:07:14.591Z,60.81
2018-08-09T04:07:46.175Z,60.90
2018-08-09T04:08:17.779Z,61.26
2018-08-09T04:08:49.412Z,61.26
2018-08-09T04:09:21.013Z,61.36
2018-08-09T04:09:52.609Z,60.98
2018-08-09T04:10:24.210Z,60.99
2018-08-09T04:10:55.791Z,61.28
2018-08-09T04:11:27.375Z,60.94
2018-08-09T04:11:59.026Z,61.03
2018-08-09T04:12:30.590Z,61.13
2018-08-09T04:13:02.186Z,61.32
2018-08-09T04:13:33.771Z,61.31
2018-08-09T04:14:05.405Z,61.40
2018-08-09T04:14:36.978Z,61.45
2018-08-09T04:15:08.581Z,61.48
2018-08-09T04:15:40.187Z,61.58
2018-08-09T04:16:11.773Z,61.40
2018-08-09T04:16:43.354Z,61.13
2018-08-09T04:17:14.935Z,60.96
2018-08-09T04:17:46.537Z,61.14
2018-08-09T04:18:18.128Z,60.80
2018-08-09T04:18:49.715Z,61.09
2018-08-09T04:19:21.312Z,61.17
2018-08-09T04:19:52.899Z,61.07
2018-08-09T04:20:24.574Z,61.37
2018-08-09T04:20:56.156Z,61.43
2018-08-09T04:21:27.793Z,61.44
2018-08-09T04:21:59.389Z,61.24
2018-08-09T04:22:30.979Z,61.36
2018-08-09T04:23:02.559Z,60.74
2018-08-09T04:23:34.153Z,60.46
2018-08-09T04:24:05.733Z,60.74
2018-08-09T04:24:37.377Z,60.18
2018-08-09T04:25:08.951Z,60.20
2018-08-09T04:25:40.548Z,60.06
2018-08-09T04:26:12.125Z,60.29
2018-08-09T04:26:43.710Z,60.36
2018-08-09T04:27:15.339Z,60.69
2018-08-09T04:27:46.924Z,60.54
2018-08-09T04:28:18.511Z,60.93
2018-08-09T04:28:50.110Z,60.54
2018-08-09T04:29:21.682Z,60.54
2018-08-09T04:29:53.268Z,60.56
2018-08-09T04:30:24.901Z,60.72
2018-08-09T04:30:56.508Z,60.50
2018-08-09T04:31:28.086Z,61.05
2018-08-09T04:31:59.681Z,60.71
2018-08-09T04:32:31.281Z,60.71
2018-08-09T04:33:02.881Z,60.51
2018-08-09T04:33:34.481Z,60.76
2018-08-09T04:34:06.079Z,60.79
2018-08-09T04:34:37.676Z,60.93
2018-08-09T04:35:09.307Z,60.84
2018-08-09T04:35:40.909Z,60.93
2018-08-09T04:36:12.498Z,60.82
2018-08-09T04:36:44.087Z,60.91
2018-08-09T04:37:15.675Z,60.96
2018-08-09T04:37:47.260Z,60.87
2018-08-09T04:38:18.833Z,60.87
2018-08-09T04:38:50.421Z,60.81
2018-08-09T04:39:22.003Z,60.72
2018-08-09T04:39:53.605Z,60.77
2018-08-09T04:40:25.210Z,60.56
2018-08-09T04:40:56.823Z,60.55
2018-08-09T04:41:28.417Z,60.54
2018-08-09T04:42:00.065Z,60.36
2018-08-09T04:42:31.710Z,60.41
2018-08-09T04:43:03.303Z,60.59
2018-08-09T04:43:34.950Z,60.53
2018-08-09T04:44:06.540Z,60.79
2018-08-09T04:44:38.136Z,60.92
2018-08-09T04:45:09.723Z,60.76
2018-08-09T04:45:41.310Z,60.99
2018-08-09T04:46:12.906Z,61.06
2018-08-09T04:46:44.505Z,61.18
2018-08-09T04:47:16.139Z,61.26
2018-08-09T04:47:47.733Z,61.22
2018-08-09T04:48:19.334Z,61.25
2018-08-09T04:48:50.923Z,61.47
2018-08-09T04:49:22.555Z,61.63
2018-08-09T04:49:54.147Z,61.66
2018-08-09T04:50:25.729Z,61.70
2018-08-09T04:50:57.327Z,61.78
2018-08-09T04:51:28.915Z,61.77
2018-08-09T04:52:00.531Z,61.54
2018-08-09T04:52:32.159Z,61.43
2018-08-09T04:53:03.753Z,61.50
2018-08-09T04:53:35.379Z,61.42
2018-08-09T04:54:06.973Z,61.27
2018-08-09T04:54:38.559Z,61.18
2018-08-09T04:55:10.137Z,61.14
2018-08-09T04:55:41.729Z,61.08
2018-08-09T04:56:13.324Z,61.02
2018-08-09T04:56:44.911Z,61.17
2018-08-09T04:57:16.505Z,61.34
2018-08-09T04:57:48.145Z,61.43
2018-08-09T04:58:19.867Z,61.53
2018-08-09T04:58:51.455Z,61.44
2018-08-09T04:59:23.043Z,61.32
2018-08-09T04:59:54.630Z,61.33
2018-08-09T05:00:26.227Z,61.26
2018-08-09T05:00:57.841Z,61.10
2018-08-09T05:01:29.444Z,61.08
2018-08-09T05:02:01.032Z,60.75
2018-08-09T05:02:32.618Z,60.66
2018-08-09T05:03:04.204Z,60.61
2018-08-09T05:03:35.842Z,60.59
2018-08-09T05:04:07.431Z,60.45
2018-08-09T05:04:39.029Z,60.57
2018-08-09T05:05:10.625Z,60.58
2018-08-09T05:05:42.202Z,60.76
2018-08-09T05:06:13.790Z,61.06
2018-08-09T05:06:45.375Z,61.27
2018-08-09T05:07:16.964Z,61.57
2018-08-09T05:07:48.554Z,61.60
2018-08-09T05:08:20.145Z,61.73
2018-08-09T05:08:51.727Z,61.94
2018-08-09T05:09:23.330Z,62.02
2018-08-09T05:09:54.915Z,61.90
2018-08-09T05:10:26.581Z,61.81
2018-08-09T05:10:58.114Z,61.75
2018-08-09T05:11:29.713Z,61.64
2018-08-09T05:12:01.300Z,61.58
2018-08-09T05:12:32.883Z,61.43
2018-08-09T05:13:04.511Z,61.44
2018-08-09T05:13:36.096Z,61.55
2018-08-09T05:14:07.692Z,61.56
2018-08-09T05:14:39.283Z,61.69
2018-08-09T05:15:10.888Z,61.44
2018-08-09T05:15:42.489Z,61.73
2018-08-09T05:16:14.090Z,61.33
2018-08-09T05:16:45.697Z,61.54
2018-08-09T05:17:17.293Z,61.59
2018-08-09T05:17:48.937Z,61.72
2018-08-09T05:18:20.568Z,61.68
2018-08-09T05:18:52.146Z,61.83
2018-08-09T05:19:23.748Z,61.85
2018-08-09T05:19:55.343Z,61.95
2018-08-09T05:20:26.981Z,61.96
2018-08-09T05:20:58.573Z,62.19
2018-08-09T05:21:30.154Z,61.92
2018-08-09T05:22:01.750Z,62.25
2018-08-09T05:22:33.376Z,62.01
2018-08-09T05:23:05.011Z,61.90
2018-08-09T05:23:36.629Z,61.75
2018-08-09T05:24:08.223Z,61.85
2018-08-09T05:24:39.825Z,61.65
2018-08-09T05:25:11.430Z,61.92
2018-08-09T05:25:43.033Z,61.44
2018-08-09T05:26:14.623Z,61.27
2018-08-09T05:26:46.212Z,61.18
2018-08-09T05:27:17.825Z,61.51
2018-08-09T05:27:49.472Z,61.31
2018-08-09T05:28:21.070Z,61.19
2018-08-09T05:28:52.677Z,60.98
2018-08-09T05:29:24.267Z,60.99
2018-08-09T05:29:55.903Z,61.10
2018-08-09T05:30:27.497Z,61.42
2018-08-09T05:30:59.101Z,61.10
2018-08-09T05:31:30.687Z,61.42
2018-08-09T05:32:02.275Z,61.50
2018-08-09T05:32:33.893Z,61.96
2018-08-09T05:33:05.483Z,61.87
2018-08-09T05:33:37.071Z,62.30
2018-08-09T05:34:08.727Z,62.33
2018-08-09T05:34:40.325Z,62.75
2018-08-09T05:35:11.965Z,62.76
2018-08-09T05:35:43.551Z,63.60
2018-08-09T05:36:15.135Z,63.11
2018-08-09T05:36:46.727Z,63.00
2018-08-09T05:37:18.329Z,63.19
2018-08-09T05:37:49.929Z,62.72
2018-08-09T05:38:21.509Z,62.31
2018-08-09T05:38:53.102Z,62.50
2018-08-09T05:39:24.704Z,62.17
2018-08-09T05:39:56.348Z,62.45
2018-08-09T05:40:27.945Z,62.54
2018-08-09T05:40:59.562Z,62.54
2018-08-09T05:41:31.142Z,62.38
2018-08-09T05:42:02.727Z,62.72
2018-08-09T05:42:34.322Z,62.71
2018-08-09T05:43:05.928Z,62.56
2018-08-09T05:43:37.531Z,62.92
2018-08-09T05:44:09.150Z,62.75
2018-08-09T05:44:40.738Z,62.60
2018-08-09T05:45:12.367Z,62.75
2018-08-09T05:45:43.959Z,63.38
2018-08-09T05:46:15.543Z,63.42
2018-08-09T05:46:47.145Z,63.67
2018-08-09T05:47:18.745Z,63.89
2018-08-09T05:47:50.331Z,63.81
2018-08-09T05:48:21.907Z,63.75
2018-08-09T05:48:53.521Z,63.59
2018-08-09T05:49:25.163Z,64.21
2018-08-09T05:49:56.751Z,63.53
2018-08-09T05:50:28.346Z,63.93
2018-08-09T05:50:59.960Z,63.99
2018-08-09T05:51:31.585Z,64.53
2018-08-09T05:52:03.176Z,64.52
2018-08-09T05:52:34.794Z,64.21
2018-08-09T05:53:06.433Z,64.24
2018-08-09T05:53:38.010Z,64.53
2018-08-09T05:54:09.594Z,64.66
2018-08-09T05:54:41.235Z,64.58
2018-08-09T05:55:12.830Z,64.75
2018-08-09T05:55:44.429Z,65.22
2018-08-09T05:56:16.020Z,64.62
2018-08-09T05:56:47.603Z,64.57
2018-08-09T05:57:19.177Z,64.92
2018-08-09T05:57:50.821Z,64.87
2018-08-09T05:58:22.423Z,65.03
2018-08-09T05:58:54.017Z,64.59
2018-08-09T05:59:25.591Z,64.62
2018-08-09T05:59:57.175Z,64.75
2018-08-09T06:00:28.769Z,65.33
2018-08-09T06:01:00.360Z,65.27
2018-08-09T06:01:31.965Z,65.18
2018-08-09T06:02:03.555Z,65.50
2018-08-09T06:02:35.143Z,65.66
2018-08-09T06:03:06.774Z,65.10
2018-08-09T06:03:38.359Z,65.15
2018-08-09T06:04:09.937Z,65.32
2018-08-09T06:04:41.524Z,65.34
2018-08-09T06:05:13.151Z,65.47
2018-08-09T06:05:44.821Z,65.59
2018-08-09T06:06:16.387Z,65.63
2018-08-09T06:06:47.989Z,65.49
2018-08-09T06:07:19.594Z,65.85
2018-08-09T06:07:51.169Z,65.73
2018-08-09T06:08:22.755Z,65.85
2018-08-09T06:08:54.342Z,66.03
2018-08-09T06:09:25.928Z,65.87
2018-08-09T06:09:57.507Z,65.62
2018-08-09T06:10:29.309Z,65.88
2018-08-09T06:11:00.891Z,65.73
2018-08-09T06:11:32.462Z,66.10
2018-08-09T06:12:04.087Z,66.00
2018-08-09T06:12:35.689Z,66.00
2018-08-09T06:13:07.289Z,66.30
2018-08-09T06:13:38.930Z,65.98
2018-08-09T06:14:10.515Z,65.54
2018-08-09T06:14:42.099Z,65.05
2018-08-09T06:15:13.687Z,64.92
2018-08-09T06:15:45.289Z,65.39
2018-08-09T06:16:16.874Z,64.96
2018-08-09T06:16:48.507Z,64.94
2018-08-09T06:17:20.078Z,64.40
2018-08-09T06:17:51.672Z,64.18
2018-08-09T06:18:23.242Z,63.90
2018-08-09T06:18:54.848Z,63.58
2018-08-09T06:19:26.457Z,63.98
2018-08-09T06:19:58.053Z,63.88
2018-08-09T06:20:29.649Z,64.84
2018-08-09T06:21:01.247Z,63.84
2018-08-09T06:21:32.835Z,64.34
2018-08-09T06:22:04.460Z,64.40
2018-08-09T06:22:36.053Z,63.88
2018-08-09T06:23:07.661Z,64.18
2018-08-09T06:23:39.257Z,63.97
2018-08-09T06:24:10.860Z,63.69
2018-08-09T06:24:42.462Z,63.58
2018-08-09T06:25:14.039Z,63.61
2018-08-09T06:25:45.623Z,63.91
2018-08-09T06:26:17.265Z,63.07
2018-08-09T06:26:48.813Z,63.69
2018-08-09T06:27:20.385Z,63.44
2018-08-09T06:27:52.013Z,63.79
2018-08-09T06:28:23.640Z,64.24
2018-08-09T06:28:55.242Z,64.03
2018-08-09T06:29:26.849Z,64.26
2018-08-09T06:29:58.442Z,63.99
2018-08-09T06:30:30.042Z,63.46
2018-08-09T06:31:02.238Z,63.37
2018-08-09T06:31:34.167Z,63.19
2018-08-09T06:32:06.104Z,63.03
2018-08-09T06:32:37.869Z,63.14
2018-08-09T06:33:09.744Z,62.86
2018-08-09T06:33:41.778Z,62.41
2018-08-09T06:34:13.601Z,62.15
2018-08-09T06:34:45.228Z,62.00
2018-08-09T06:35:16.815Z,61.69
2018-08-09T06:35:48.403Z,61.99
2018-08-09T06:36:19.991Z,61.95
2018-08-09T06:36:51.585Z,61.99
2018-08-09T06:37:23.168Z,61.75
2018-08-09T06:37:54.767Z,62.17
2018-08-09T06:38:26.355Z,61.48
2018-08-09T06:38:57.979Z,61.81
2018-08-09T06:39:29.571Z,62.30
2018-08-09T06:40:01.159Z,62.14
2018-08-09T06:40:32.743Z,62.19
2018-08-09T06:41:04.341Z,62.55
2018-08-09T06:41:35.946Z,62.23
2018-08-09T06:42:07.518Z,62.07
2018-08-09T06:42:39.143Z,61.99
2018-08-09T06:43:10.741Z,62.11
2018-08-09T06:43:42.345Z,61.77
2018-08-09T06:44:13.935Z,62.01
2018-08-09T06:44:45.577Z,62.18
2018-08-09T06:45:17.174Z,62.60
2018-08-09T06:45:48.763Z,62.30
2018-08-09T06:46:20.387Z,62.43
2018-08-09T06:46:51.986Z,62.09